sensor_id;sensor_type;location;lat;lon;timestamp;temperature;humidity
9772;DHT22;4925;52.588;13.370;2023-12-29T00:02:15;9.00;99.90
9772;DHT22;4925;52.588;13.370;2023-12-29T00:04:40;9.00;99.90
9772;DHT22;4925;52.588;13.370;2023-12-29T00:07:07;9.00;99.90
9772;DHT22;4925;52.588;13.370;2023-12-29T00:09:33;9.00;99.90
9772;DHT22;4925;52.588;13.370;2023-12-29T00:12:07;9.00;99.90
9772;DHT22;4925;52.588;13.370;2023-12-29T00:14:36;9.00;99.90
9772;DHT22;4925;52.588;13.370;2023-12-29T00:17:03;9.00;99.90
9772;DHT22;4925;52.588;13.370;2023-12-29T00:19:29;9.00;99.90
9772;DHT22;4925;52.588;13.370;2023-12-29T00:21:54;9.10;99.90
9772;DHT22;4925;52.588;13.370;2023-12-29T00:24:20;9.10;99.90
9772;DHT22;4925;52.588;13.370;2023-12-29T00:26:47;9.10;99.90
9772;DHT22;4925;52.588;13.370;2023-12-29T00:29:14;9.10;99.90
9772;DHT22;4925;52.588;13.370;2023-12-29T00:31:40;9.10;99.90
9772;DHT22;4925;52.588;13.370;2023-12-29T00:34:07;9.10;99.90
9772;DHT22;4925;52.588;13.370;2023-12-29T00:36:32;9.10;99.90
9772;DHT22;4925;52.588;13.370;2023-12-29T00:38:58;9.10;99.90
9772;DHT22;4925;52.588;13.370;2023-12-29T00:41:24;9.10;99.90
9772;DHT22;4925;52.588;13.370;2023-12-29T00:43:51;9.20;99.90
9772;DHT22;4925;52.588;13.370;2023-12-29T00:46:16;9.20;99.90
9772;DHT22;4925;52.588;13.370;2023-12-29T00:48:42;9.20;99.90
9772;DHT22;4925;52.588;13.370;2023-12-29T00:51:08;9.20;99.90
9772;DHT22;4925;52.588;13.370;2023-12-29T00:53:37;9.20;99.90
9772;DHT22;4925;52.588;13.370;2023-12-29T00:56:03;9.20;99.90
9772;DHT22;4925;52.588;13.370;2023-12-29T00:58:29;9.20;99.90
9772;DHT22;4925;52.588;13.370;2023-12-29T01:00:55;9.20;99.90
9772;DHT22;4925;52.588;13.370;2023-12-29T01:03:20;9.20;99.90
9772;DHT22;4925;52.588;13.370;2023-12-29T01:05:46;9.20;99.90
9772;DHT22;4925;52.588;13.370;2023-12-29T01:08:12;9.20;99.90
9772;DHT22;4925;52.588;13.370;2023-12-29T01:10:38;9.20;99.90
9772;DHT22;4925;52.588;13.370;2023-12-29T01:13:03;9.20;99.90
9772;DHT22;4925;52.588;13.370;2023-12-29T01:15:29;9.30;99.90
9772;DHT22;4925;52.588;13.370;2023-12-29T01:17:55;9.30;99.90
9772;DHT22;4925;52.588;13.370;2023-12-29T01:20:21;9.30;99.90
9772;DHT22;4925;52.588;13.370;2023-12-29T01:22:46;9.30;99.90
9772;DHT22;4925;52.588;13.370;2023-12-29T01:25:12;9.30;99.90
9772;DHT22;4925;52.588;13.370;2023-12-29T01:27:38;9.30;99.90
9772;DHT22;4925;52.588;13.370;2023-12-29T01:30:04;9.30;99.90
9772;DHT22;4925;52.588;13.370;2023-12-29T01:32:30;9.30;99.90
9772;DHT22;4925;52.588;13.370;2023-12-29T01:34:56;9.30;99.90
9772;DHT22;4925;52.588;13.370;2023-12-29T01:37:21;9.30;99.90
9772;DHT22;4925;52.588;13.370;2023-12-29T01:39:53;9.30;99.90
9772;DHT22;4925;52.588;13.370;2023-12-29T01:42:19;9.30;99.90
9772;DHT22;4925;52.588;13.370;2023-12-29T01:44:44;9.30;99.90
9772;DHT22;4925;52.588;13.370;2023-12-29T01:47:16;9.30;99.90
9772;DHT22;4925;52.588;13.370;2023-12-29T01:49:45;9.30;99.90
9772;DHT22;4925;52.588;13.370;2023-12-29T01:52:13;9.30;99.90
9772;DHT22;4925;52.588;13.370;2023-12-29T01:54:40;9.30;99.90
9772;DHT22;4925;52.588;13.370;2023-12-29T01:57:08;9.30;99.90
9772;DHT22;4925;52.588;13.370;2023-12-29T01:59:34;9.30;99.90
9772;DHT22;4925;52.588;13.370;2023-12-29T02:02:01;9.30;99.90
9772;DHT22;4925;52.588;13.370;2023-12-29T02:04:28;9.30;99.90
9772;DHT22;4925;52.588;13.370;2023-12-29T02:06:54;9.30;99.90
9772;DHT22;4925;52.588;13.370;2023-12-29T02:09:24;9.40;99.90
9772;DHT22;4925;52.588;13.370;2023-12-29T02:11:54;9.40;99.90
9772;DHT22;4925;52.588;13.370;2023-12-29T02:14:20;9.40;99.90
9772;DHT22;4925;52.588;13.370;2023-12-29T02:17:36;9.40;99.90
9772;DHT22;4925;52.588;13.370;2023-12-29T02:19:41;9.40;99.90
9772;DHT22;4925;52.588;13.370;2023-12-29T02:22:12;9.40;99.90
9772;DHT22;4925;52.588;13.370;2023-12-29T02:24:39;9.40;99.90
9772;DHT22;4925;52.588;13.370;2023-12-29T02:33:23;9.40;99.90
9772;DHT22;4925;52.588;13.370;2023-12-29T02:35:52;9.40;99.90
9772;DHT22;4925;52.588;13.370;2023-12-29T02:38:19;9.40;99.90
9772;DHT22;4925;52.588;13.370;2023-12-29T02:40:46;9.30;99.90
9772;DHT22;4925;52.588;13.370;2023-12-29T02:43:14;9.30;99.90
9772;DHT22;4925;52.588;13.370;2023-12-29T02:45:42;9.30;99.90
9772;DHT22;4925;52.588;13.370;2023-12-29T02:48:08;9.30;99.90
9772;DHT22;4925;52.588;13.370;2023-12-29T02:50:34;9.30;99.90
9772;DHT22;4925;52.588;13.370;2023-12-29T02:53:02;9.30;99.90
9772;DHT22;4925;52.588;13.370;2023-12-29T02:55:31;9.40;99.90
9772;DHT22;4925;52.588;13.370;2023-12-29T02:58:04;9.40;99.90
9772;DHT22;4925;52.588;13.370;2023-12-29T03:00:30;9.40;99.90
9772;DHT22;4925;52.588;13.370;2023-12-29T03:02:56;9.40;99.90
9772;DHT22;4925;52.588;13.370;2023-12-29T03:05:21;9.40;99.90
9772;DHT22;4925;52.588;13.370;2023-12-29T03:07:50;9.30;99.90
9772;DHT22;4925;52.588;13.370;2023-12-29T03:10:19;9.30;99.90
9772;DHT22;4925;52.588;13.370;2023-12-29T03:12:48;9.40;99.90
9772;DHT22;4925;52.588;13.370;2023-12-29T03:15:17;9.40;99.90
9772;DHT22;4925;52.588;13.370;2023-12-29T03:17:45;9.40;99.90
9772;DHT22;4925;52.588;13.370;2023-12-29T03:20:11;9.40;99.90
9772;DHT22;4925;52.588;13.370;2023-12-29T03:22:45;9.40;99.90
9772;DHT22;4925;52.588;13.370;2023-12-29T03:25:16;9.40;99.90
9772;DHT22;4925;52.588;13.370;2023-12-29T03:27:43;9.40;99.90
9772;DHT22;4925;52.588;13.370;2023-12-29T03:30:22;9.40;99.90
9772;DHT22;4925;52.588;13.370;2023-12-29T03:32:51;9.40;99.90
9772;DHT22;4925;52.588;13.370;2023-12-29T03:35:28;9.40;99.90
9772;DHT22;4925;52.588;13.370;2023-12-29T03:37:57;9.40;99.90
9772;DHT22;4925;52.588;13.370;2023-12-29T03:40:23;9.40;99.90
9772;DHT22;4925;52.588;13.370;2023-12-29T03:42:52;9.40;99.90
9772;DHT22;4925;52.588;13.370;2023-12-29T03:45:18;9.40;99.90
9772;DHT22;4925;52.588;13.370;2023-12-29T03:48:13;9.40;99.90
9772;DHT22;4925;52.588;13.370;2023-12-29T03:50:48;9.40;99.90
9772;DHT22;4925;52.588;13.370;2023-12-29T03:53:16;9.50;99.90
9772;DHT22;4925;52.588;13.370;2023-12-29T03:55:45;9.50;99.90
9772;DHT22;4925;52.588;13.370;2023-12-29T03:58:14;9.40;99.90
9772;DHT22;4925;52.588;13.370;2023-12-29T04:00:40;9.50;99.90
9772;DHT22;4925;52.588;13.370;2023-12-29T04:03:13;9.50;99.90
9772;DHT22;4925;52.588;13.370;2023-12-29T04:05:39;9.50;99.90
9772;DHT22;4925;52.588;13.370;2023-12-29T04:08:12;9.50;99.90
9772;DHT22;4925;52.588;13.370;2023-12-29T04:10:42;9.50;99.90
9772;DHT22;4925;52.588;13.370;2023-12-29T04:13:08;9.50;99.90
9772;DHT22;4925;52.588;13.370;2023-12-29T04:15:35;9.50;99.90
9772;DHT22;4925;52.588;13.370;2023-12-29T04:18:04;9.50;99.90
9772;DHT22;4925;52.588;13.370;2023-12-29T04:20:48;9.50;99.90
9772;DHT22;4925;52.588;13.370;2023-12-29T04:23:17;9.60;99.90
9772;DHT22;4925;52.588;13.370;2023-12-29T04:25:45;9.60;99.90
9772;DHT22;4925;52.588;13.370;2023-12-29T04:28:21;9.50;99.90
9772;DHT22;4925;52.588;13.370;2023-12-29T04:30:52;9.60;99.90
9772;DHT22;4925;52.588;13.370;2023-12-29T04:33:23;9.60;99.90
9772;DHT22;4925;52.588;13.370;2023-12-29T04:35:50;9.60;99.90
9772;DHT22;4925;52.588;13.370;2023-12-29T04:38:21;9.60;99.90
9772;DHT22;4925;52.588;13.370;2023-12-29T04:40:48;9.60;99.90
9772;DHT22;4925;52.588;13.370;2023-12-29T04:43:14;9.60;99.90
9772;DHT22;4925;52.588;13.370;2023-12-29T04:45:43;9.60;99.90
9772;DHT22;4925;52.588;13.370;2023-12-29T04:48:09;9.60;99.90
9772;DHT22;4925;52.588;13.370;2023-12-29T04:50:38;9.60;99.90
9772;DHT22;4925;52.588;13.370;2023-12-29T04:53:13;9.60;99.90
9772;DHT22;4925;52.588;13.370;2023-12-29T04:55:42;9.50;99.90
9772;DHT22;4925;52.588;13.370;2023-12-29T04:58:10;9.60;99.90
9772;DHT22;4925;52.588;13.370;2023-12-29T05:00:43;9.60;99.90
9772;DHT22;4925;52.588;13.370;2023-12-29T05:03:12;9.60;99.90
9772;DHT22;4925;52.588;13.370;2023-12-29T05:05:46;9.50;99.90
9772;DHT22;4925;52.588;13.370;2023-12-29T05:08:13;9.50;99.90
9772;DHT22;4925;52.588;13.370;2023-12-29T05:10:39;9.50;99.90
9772;DHT22;4925;52.588;13.370;2023-12-29T05:13:14;9.50;99.90
9772;DHT22;4925;52.588;13.370;2023-12-29T05:15:40;9.60;99.90
9772;DHT22;4925;52.588;13.370;2023-12-29T05:18:29;9.60;99.90
9772;DHT22;4925;52.588;13.370;2023-12-29T05:21:14;9.60;99.90
9772;DHT22;4925;52.588;13.370;2023-12-29T05:23:51;9.50;99.90
9772;DHT22;4925;52.588;13.370;2023-12-29T05:26:31;9.60;99.90
9772;DHT22;4925;52.588;13.370;2023-12-29T05:29:39;9.60;99.90
9772;DHT22;4925;52.588;13.370;2023-12-29T05:32:04;9.60;99.90
9772;DHT22;4925;52.588;13.370;2023-12-29T05:34:33;9.70;99.90
9772;DHT22;4925;52.588;13.370;2023-12-29T05:37:03;9.60;99.90
9772;DHT22;4925;52.588;13.370;2023-12-29T05:39:42;9.70;99.90
9772;DHT22;4925;52.588;13.370;2023-12-29T05:42:17;9.60;99.90
9772;DHT22;4925;52.588;13.370;2023-12-29T05:44:46;9.70;99.90
9772;DHT22;4925;52.588;13.370;2023-12-29T05:47:12;9.70;99.90
9772;DHT22;4925;52.588;13.370;2023-12-29T05:49:38;9.80;99.90
9772;DHT22;4925;52.588;13.370;2023-12-29T05:52:14;9.80;99.90
9772;DHT22;4925;52.588;13.370;2023-12-29T05:54:43;9.80;99.90
9772;DHT22;4925;52.588;13.370;2023-12-29T05:57:09;9.80;99.90
9772;DHT22;4925;52.588;13.370;2023-12-29T05:59:43;9.80;99.90
9772;DHT22;4925;52.588;13.370;2023-12-29T06:02:10;9.80;99.90
9772;DHT22;4925;52.588;13.370;2023-12-29T06:04:41;9.80;99.90
9772;DHT22;4925;52.588;13.370;2023-12-29T06:07:09;9.90;99.90
9772;DHT22;4925;52.588;13.370;2023-12-29T06:09:36;9.80;99.90
9772;DHT22;4925;52.588;13.370;2023-12-29T06:12:02;9.80;99.90
9772;DHT22;4925;52.588;13.370;2023-12-29T06:14:36;9.80;99.90
9772;DHT22;4925;52.588;13.370;2023-12-29T06:17:03;9.90;99.90
9772;DHT22;4925;52.588;13.370;2023-12-29T06:19:35;9.90;99.90
9772;DHT22;4925;52.588;13.370;2023-12-29T06:22:10;9.90;99.90
9772;DHT22;4925;52.588;13.370;2023-12-29T06:25:09;10.00;99.90
9772;DHT22;4925;52.588;13.370;2023-12-29T06:27:36;10.00;99.90
9772;DHT22;4925;52.588;13.370;2023-12-29T06:30:11;10.00;99.90
9772;DHT22;4925;52.588;13.370;2023-12-29T06:32:40;10.00;99.90
9772;DHT22;4925;52.588;13.370;2023-12-29T06:35:15;9.90;99.90
9772;DHT22;4925;52.588;13.370;2023-12-29T06:37:48;10.00;99.90
9772;DHT22;4925;52.588;13.370;2023-12-29T06:40:20;10.00;99.90
9772;DHT22;4925;52.588;13.370;2023-12-29T06:42:52;10.00;99.90
9772;DHT22;4925;52.588;13.370;2023-12-29T06:45:18;10.00;99.90
9772;DHT22;4925;52.588;13.370;2023-12-29T06:47:53;10.00;99.90
9772;DHT22;4925;52.588;13.370;2023-12-29T06:50:38;10.10;99.90
9772;DHT22;4925;52.588;13.370;2023-12-29T06:53:05;10.10;99.90
9772;DHT22;4925;52.588;13.370;2023-12-29T06:55:31;10.10;99.90
9772;DHT22;4925;52.588;13.370;2023-12-29T06:58:12;10.10;99.90
9772;DHT22;4925;52.588;13.370;2023-12-29T07:00:39;10.00;99.90
9772;DHT22;4925;52.588;13.370;2023-12-29T07:03:15;10.10;99.90
9772;DHT22;4925;52.588;13.370;2023-12-29T07:05:46;10.00;99.90
9772;DHT22;4925;52.588;13.370;2023-12-29T07:08:22;10.00;99.90
9772;DHT22;4925;52.588;13.370;2023-12-29T07:10:48;10.00;99.90
9772;DHT22;4925;52.588;13.370;2023-12-29T07:13:26;10.00;99.90
9772;DHT22;4925;52.588;13.370;2023-12-29T07:15:55;10.00;99.90
9772;DHT22;4925;52.588;13.370;2023-12-29T07:18:22;10.00;99.90
9772;DHT22;4925;52.588;13.370;2023-12-29T07:20:48;10.10;99.90
9772;DHT22;4925;52.588;13.370;2023-12-29T07:23:24;10.10;99.90
9772;DHT22;4925;52.588;13.370;2023-12-29T07:26:01;10.10;99.90
9772;DHT22;4925;52.588;13.370;2023-12-29T07:28:33;10.10;99.90
9772;DHT22;4925;52.588;13.370;2023-12-29T07:31:01;10.10;99.90
9772;DHT22;4925;52.588;13.370;2023-12-29T07:33:48;10.10;99.90
9772;DHT22;4925;52.588;13.370;2023-12-29T07:36:15;10.10;99.90
9772;DHT22;4925;52.588;13.370;2023-12-29T07:38:51;10.10;99.90
9772;DHT22;4925;52.588;13.370;2023-12-29T07:44:32;10.20;99.90
9772;DHT22;4925;52.588;13.370;2023-12-29T07:47:16;10.20;99.90
9772;DHT22;4925;52.588;13.370;2023-12-29T07:50:25;10.20;99.90
9772;DHT22;4925;52.588;13.370;2023-12-29T07:52:53;10.20;99.90
9772;DHT22;4925;52.588;13.370;2023-12-29T07:55:38;10.20;99.90
9772;DHT22;4925;52.588;13.370;2023-12-29T07:58:05;10.20;99.90
9772;DHT22;4925;52.588;13.370;2023-12-29T08:00:31;10.20;99.90
9772;DHT22;4925;52.588;13.370;2023-12-29T08:02:56;10.30;99.90
9772;DHT22;4925;52.588;13.370;2023-12-29T08:12:46;10.50;99.90
9772;DHT22;4925;52.588;13.370;2023-12-29T08:16:02;10.50;99.90
9772;DHT22;4925;52.588;13.370;2023-12-29T08:18:44;10.60;99.90
9772;DHT22;4925;52.588;13.370;2023-12-29T08:21:16;10.60;99.90
9772;DHT22;4925;52.588;13.370;2023-12-29T08:23:59;10.60;99.90
9772;DHT22;4925;52.588;13.370;2023-12-29T08:26:33;10.60;99.90
9772;DHT22;4925;52.588;13.370;2023-12-29T08:29:02;10.60;99.90
9772;DHT22;4925;52.588;13.370;2023-12-29T08:31:33;10.60;99.90
9772;DHT22;4925;52.588;13.370;2023-12-29T08:34:01;10.60;99.90
9772;DHT22;4925;52.588;13.370;2023-12-29T08:36:28;10.60;99.90
9772;DHT22;4925;52.588;13.370;2023-12-29T08:39:01;10.60;99.90
9772;DHT22;4925;52.588;13.370;2023-12-29T08:41:39;10.60;99.90
9772;DHT22;4925;52.588;13.370;2023-12-29T08:44:15;10.70;99.90
9772;DHT22;4925;52.588;13.370;2023-12-29T08:46:50;10.70;99.90
9772;DHT22;4925;52.588;13.370;2023-12-29T08:49:22;10.70;99.90
9772;DHT22;4925;52.588;13.370;2023-12-29T08:52:02;10.70;99.90
9772;DHT22;4925;52.588;13.370;2023-12-29T08:54:38;10.80;99.90
9772;DHT22;4925;52.588;13.370;2023-12-29T08:57:44;10.80;99.90
9772;DHT22;4925;52.588;13.370;2023-12-29T09:00:30;10.90;99.90
9772;DHT22;4925;52.588;13.370;2023-12-29T09:03:19;10.90;99.90
9772;DHT22;4925;52.588;13.370;2023-12-29T09:05:57;10.90;99.90
9772;DHT22;4925;52.588;13.370;2023-12-29T09:08:34;11.00;99.90
9772;DHT22;4925;52.588;13.370;2023-12-29T09:11:00;10.90;99.90
9772;DHT22;4925;52.588;13.370;2023-12-29T09:13:44;11.00;99.90
9772;DHT22;4925;52.588;13.370;2023-12-29T09:16:35;11.00;99.90
9772;DHT22;4925;52.588;13.370;2023-12-29T09:19:04;11.00;99.90
9772;DHT22;4925;52.588;13.370;2023-12-29T09:21:30;11.00;99.90
9772;DHT22;4925;52.588;13.370;2023-12-29T09:23:59;10.90;99.90
9772;DHT22;4925;52.588;13.370;2023-12-29T09:26:33;10.90;99.90
9772;DHT22;4925;52.588;13.370;2023-12-29T09:29:01;10.90;99.90
9772;DHT22;4925;52.588;13.370;2023-12-29T09:31:31;10.90;99.90
9772;DHT22;4925;52.588;13.370;2023-12-29T09:34:14;10.90;99.90
9772;DHT22;4925;52.588;13.370;2023-12-29T09:36:50;10.90;99.90
9772;DHT22;4925;52.588;13.370;2023-12-29T09:39:17;10.90;99.90
9772;DHT22;4925;52.588;13.370;2023-12-29T09:41:47;10.90;99.90
9772;DHT22;4925;52.588;13.370;2023-12-29T09:44:46;11.00;99.90
9772;DHT22;4925;52.588;13.370;2023-12-29T09:47:24;11.00;99.90
9772;DHT22;4925;52.588;13.370;2023-12-29T09:49:53;11.10;99.90
9772;DHT22;4925;52.588;13.370;2023-12-29T09:52:29;11.10;99.90
9772;DHT22;4925;52.588;13.370;2023-12-29T09:55:01;11.10;99.90
9772;DHT22;4925;52.588;13.370;2023-12-29T09:58:14;11.20;99.90
9772;DHT22;4925;52.588;13.370;2023-12-29T10:01:53;11.20;99.90
9772;DHT22;4925;52.588;13.370;2023-12-29T10:04:35;11.20;99.90
9772;DHT22;4925;52.588;13.370;2023-12-29T10:07:04;11.30;99.90
9772;DHT22;4925;52.588;13.370;2023-12-29T10:09:34;11.40;99.90
9772;DHT22;4925;52.588;13.370;2023-12-29T10:12:03;11.50;99.90
9772;DHT22;4925;52.588;13.370;2023-12-29T10:20:42;11.40;99.90
9772;DHT22;4925;52.588;13.370;2023-12-29T10:23:17;11.30;99.90
9772;DHT22;4925;52.588;13.370;2023-12-29T10:25:52;11.30;99.90
9772;DHT22;4925;52.588;13.370;2023-12-29T10:28:21;11.40;99.90
9772;DHT22;4925;52.588;13.370;2023-12-29T10:31:18;11.30;99.90
9772;DHT22;4925;52.588;13.370;2023-12-29T10:37:04;11.40;99.90
9772;DHT22;4925;52.588;13.370;2023-12-29T10:40:07;11.40;99.90
9772;DHT22;4925;52.588;13.370;2023-12-29T10:43:21;11.50;99.90
9772;DHT22;4925;52.588;13.370;2023-12-29T10:46:30;11.50;99.90
9772;DHT22;4925;52.588;13.370;2023-12-29T10:49:11;11.60;99.90
9772;DHT22;4925;52.588;13.370;2023-12-29T10:52:35;11.60;99.90
9772;DHT22;4925;52.588;13.370;2023-12-29T10:56:16;11.50;99.90
9772;DHT22;4925;52.588;13.370;2023-12-29T10:59:16;11.50;99.90
9772;DHT22;4925;52.588;13.370;2023-12-29T11:02:54;11.50;99.90
9772;DHT22;4925;52.588;13.370;2023-12-29T11:09:43;11.50;99.90
9772;DHT22;4925;52.588;13.370;2023-12-29T11:12:30;11.60;99.90
9772;DHT22;4925;52.588;13.370;2023-12-29T11:16:06;11.60;99.90
9772;DHT22;4925;52.588;13.370;2023-12-29T11:19:43;11.60;99.90
9772;DHT22;4925;52.588;13.370;2023-12-29T11:22:54;11.60;99.90
9772;DHT22;4925;52.588;13.370;2023-12-29T11:25:39;11.60;99.90
9772;DHT22;4925;52.588;13.370;2023-12-29T11:28:52;11.60;99.90
9772;DHT22;4925;52.588;13.370;2023-12-29T11:31:34;11.70;99.90
9772;DHT22;4925;52.588;13.370;2023-12-29T11:34:28;11.70;99.90
9772;DHT22;4925;52.588;13.370;2023-12-29T11:37:36;11.70;99.90
9772;DHT22;4925;52.588;13.370;2023-12-29T11:40:23;11.70;99.90
9772;DHT22;4925;52.588;13.370;2023-12-29T11:43:03;11.70;99.90
9772;DHT22;4925;52.588;13.370;2023-12-29T11:45:49;11.70;99.90
9772;DHT22;4925;52.588;13.370;2023-12-29T11:51:40;11.80;99.90
9772;DHT22;4925;52.588;13.370;2023-12-29T11:54:31;11.80;99.90
9772;DHT22;4925;52.588;13.370;2023-12-29T11:57:13;11.90;99.90
9772;DHT22;4925;52.588;13.370;2023-12-29T12:00:14;11.90;99.90
9772;DHT22;4925;52.588;13.370;2023-12-29T12:03:03;11.90;99.90
9772;DHT22;4925;52.588;13.370;2023-12-29T12:05:48;11.90;99.90
9772;DHT22;4925;52.588;13.370;2023-12-29T12:08:37;11.90;99.90
9772;DHT22;4925;52.588;13.370;2023-12-29T12:14:10;11.90;99.90
9772;DHT22;4925;52.588;13.370;2023-12-29T12:17:02;11.80;99.90
9772;DHT22;4925;52.588;13.370;2023-12-29T12:20:06;11.80;99.90
9772;DHT22;4925;52.588;13.370;2023-12-29T12:22:42;11.80;99.90
9772;DHT22;4925;52.588;13.370;2023-12-29T12:25:28;11.80;99.90
9772;DHT22;4925;52.588;13.370;2023-12-29T12:27:57;11.80;99.90
9772;DHT22;4925;52.588;13.370;2023-12-29T12:30:38;11.80;99.90
9772;DHT22;4925;52.588;13.370;2023-12-29T12:33:16;11.80;99.90
9772;DHT22;4925;52.588;13.370;2023-12-29T12:36:09;11.60;99.90
9772;DHT22;4925;52.588;13.370;2023-12-29T12:38:54;11.50;99.90
9772;DHT22;4925;52.588;13.370;2023-12-29T12:41:51;11.40;99.90
9772;DHT22;4925;52.588;13.370;2023-12-29T12:44:46;11.20;99.90
9772;DHT22;4925;52.588;13.370;2023-12-29T12:48:09;11.10;99.90
9772;DHT22;4925;52.588;13.370;2023-12-29T12:50:08;11.00;99.90
9772;DHT22;4925;52.588;13.370;2023-12-29T12:52:49;10.80;99.90
9772;DHT22;4925;52.588;13.370;2023-12-29T12:55:48;10.80;99.90
9772;DHT22;4925;52.588;13.370;2023-12-29T12:58:24;10.70;99.90
9772;DHT22;4925;52.588;13.370;2023-12-29T13:01:02;10.70;99.90
9772;DHT22;4925;52.588;13.370;2023-12-29T13:03:34;10.60;99.90
9772;DHT22;4925;52.588;13.370;2023-12-29T13:06:12;10.70;99.90
9772;DHT22;4925;52.588;13.370;2023-12-29T13:08:43;10.60;99.90
9772;DHT22;4925;52.588;13.370;2023-12-29T13:11:21;10.70;99.90
9772;DHT22;4925;52.588;13.370;2023-12-29T13:14:04;10.60;99.90
9772;DHT22;4925;52.588;13.370;2023-12-29T13:16:44;10.60;99.90
9772;DHT22;4925;52.588;13.370;2023-12-29T13:19:31;10.60;99.90
9772;DHT22;4925;52.588;13.370;2023-12-29T13:22:14;10.60;99.90
9772;DHT22;4925;52.588;13.370;2023-12-29T13:24:52;10.70;99.90
9772;DHT22;4925;52.588;13.370;2023-12-29T13:28:02;10.70;99.90
9772;DHT22;4925;52.588;13.370;2023-12-29T13:30:51;10.70;99.90
9772;DHT22;4925;52.588;13.370;2023-12-29T13:34:04;10.70;99.90
9772;DHT22;4925;52.588;13.370;2023-12-29T13:36:54;10.60;99.90
9772;DHT22;4925;52.588;13.370;2023-12-29T13:45:16;10.80;99.90
9772;DHT22;4925;52.588;13.370;2023-12-29T13:48:14;10.90;99.90
9772;DHT22;4925;52.588;13.370;2023-12-29T13:51:02;10.90;99.90
9772;DHT22;4925;52.588;13.370;2023-12-29T13:53:50;10.90;99.90
9772;DHT22;4925;52.588;13.370;2023-12-29T13:56:52;11.00;99.90
9772;DHT22;4925;52.588;13.370;2023-12-29T13:59:28;11.10;99.90
9772;DHT22;4925;52.588;13.370;2023-12-29T14:05:18;11.10;99.90
9772;DHT22;4925;52.588;13.370;2023-12-29T14:08:04;11.00;99.90
9772;DHT22;4925;52.588;13.370;2023-12-29T14:10:35;11.10;99.90
9772;DHT22;4925;52.588;13.370;2023-12-29T14:13:16;11.10;99.90
9772;DHT22;4925;52.588;13.370;2023-12-29T14:15:48;11.10;99.90
9772;DHT22;4925;52.588;13.370;2023-12-29T14:21:44;11.20;99.90
9772;DHT22;4925;52.588;13.370;2023-12-29T14:25:12;11.20;99.90
9772;DHT22;4925;52.588;13.370;2023-12-29T14:27:37;11.20;99.90
9772;DHT22;4925;52.588;13.370;2023-12-29T14:30:20;11.20;99.90
9772;DHT22;4925;52.588;13.370;2023-12-29T14:32:59;11.20;99.90
9772;DHT22;4925;52.588;13.370;2023-12-29T14:35:44;11.20;99.90
9772;DHT22;4925;52.588;13.370;2023-12-29T14:38:37;11.20;99.90
9772;DHT22;4925;52.588;13.370;2023-12-29T14:41:15;11.30;99.90
9772;DHT22;4925;52.588;13.370;2023-12-29T14:43:51;11.30;99.90
9772;DHT22;4925;52.588;13.370;2023-12-29T14:46:22;11.20;99.90
9772;DHT22;4925;52.588;13.370;2023-12-29T14:48:56;11.30;99.90
9772;DHT22;4925;52.588;13.370;2023-12-29T14:51:31;11.30;99.90
9772;DHT22;4925;52.588;13.370;2023-12-29T14:54:03;11.30;99.90
9772;DHT22;4925;52.588;13.370;2023-12-29T14:56:36;11.30;99.90
9772;DHT22;4925;52.588;13.370;2023-12-29T14:59:16;11.30;99.90
9772;DHT22;4925;52.588;13.370;2023-12-29T15:01:51;11.30;99.90
9772;DHT22;4925;52.588;13.370;2023-12-29T15:04:22;11.30;99.90
9772;DHT22;4925;52.588;13.370;2023-12-29T15:06:59;11.20;99.90
9772;DHT22;4925;52.588;13.370;2023-12-29T15:09:26;11.30;99.90
9772;DHT22;4925;52.588;13.370;2023-12-29T15:11:58;11.30;99.90
9772;DHT22;4925;52.588;13.370;2023-12-29T15:14:44;11.20;99.90
9772;DHT22;4925;52.588;13.370;2023-12-29T15:17:13;11.20;99.90
9772;DHT22;4925;52.588;13.370;2023-12-29T15:20:04;11.20;99.90
9772;DHT22;4925;52.588;13.370;2023-12-29T15:22:32;11.20;99.90
9772;DHT22;4925;52.588;13.370;2023-12-29T15:24:57;11.10;99.90
9772;DHT22;4925;52.588;13.370;2023-12-29T15:27:38;11.20;99.90
9772;DHT22;4925;52.588;13.370;2023-12-29T15:30:14;11.10;99.90
9772;DHT22;4925;52.588;13.370;2023-12-29T15:33:00;11.10;99.90
9772;DHT22;4925;52.588;13.370;2023-12-29T15:39:01;11.10;99.90
9772;DHT22;4925;52.588;13.370;2023-12-29T15:45:43;11.10;99.90
9772;DHT22;4925;52.588;13.370;2023-12-29T15:54:59;11.10;99.90
9772;DHT22;4925;52.588;13.370;2023-12-29T15:57:36;11.10;99.90
9772;DHT22;4925;52.588;13.370;2023-12-29T16:03:05;11.10;99.90
9772;DHT22;4925;52.588;13.370;2023-12-29T16:05:47;11.10;99.90
9772;DHT22;4925;52.588;13.370;2023-12-29T16:08:25;11.30;99.90
9772;DHT22;4925;52.588;13.370;2023-12-29T16:10:51;11.10;99.90
9772;DHT22;4925;52.588;13.370;2023-12-29T16:13:46;11.10;99.90
9772;DHT22;4925;52.588;13.370;2023-12-29T16:16:28;11.20;99.90
9772;DHT22;4925;52.588;13.370;2023-12-29T16:19:22;11.20;99.90
9772;DHT22;4925;52.588;13.370;2023-12-29T16:22:15;11.20;99.90
9772;DHT22;4925;52.588;13.370;2023-12-29T16:24:54;11.30;99.90
9772;DHT22;4925;52.588;13.370;2023-12-29T16:27:48;11.20;99.90
9772;DHT22;4925;52.588;13.370;2023-12-29T16:30:21;11.20;99.90
9772;DHT22;4925;52.588;13.370;2023-12-29T16:32:57;11.20;99.90
9772;DHT22;4925;52.588;13.370;2023-12-29T16:35:31;11.10;99.90
9772;DHT22;4925;52.588;13.370;2023-12-29T16:38:08;11.20;99.90
9772;DHT22;4925;52.588;13.370;2023-12-29T16:40:43;11.20;99.90
9772;DHT22;4925;52.588;13.370;2023-12-29T16:43:14;11.20;99.90
9772;DHT22;4925;52.588;13.370;2023-12-29T16:45:53;11.10;99.90
9772;DHT22;4925;52.588;13.370;2023-12-29T16:48:19;11.10;99.90
9772;DHT22;4925;52.588;13.370;2023-12-29T16:50:45;11.10;99.90
9772;DHT22;4925;52.588;13.370;2023-12-29T16:53:14;11.10;99.90
9772;DHT22;4925;52.588;13.370;2023-12-29T16:55:40;11.10;99.90
9772;DHT22;4925;52.588;13.370;2023-12-29T16:58:06;11.10;99.90
9772;DHT22;4925;52.588;13.370;2023-12-29T17:00:46;11.00;99.90
9772;DHT22;4925;52.588;13.370;2023-12-29T17:03:12;11.00;99.90
9772;DHT22;4925;52.588;13.370;2023-12-29T17:05:41;11.00;99.90
9772;DHT22;4925;52.588;13.370;2023-12-29T17:08:08;11.00;99.90
9772;DHT22;4925;52.588;13.370;2023-12-29T17:10:39;11.00;99.90
9772;DHT22;4925;52.588;13.370;2023-12-29T17:13:24;11.00;99.90
9772;DHT22;4925;52.588;13.370;2023-12-29T17:15:56;11.00;99.90
9772;DHT22;4925;52.588;13.370;2023-12-29T17:18:33;11.00;99.90
9772;DHT22;4925;52.588;13.370;2023-12-29T17:21:07;10.90;99.90
9772;DHT22;4925;52.588;13.370;2023-12-29T17:24:05;10.90;99.90
9772;DHT22;4925;52.588;13.370;2023-12-29T17:36:48;10.90;99.90
9772;DHT22;4925;52.588;13.370;2023-12-29T17:39:19;10.80;99.90
9772;DHT22;4925;52.588;13.370;2023-12-29T17:41:46;10.90;99.90
9772;DHT22;4925;52.588;13.370;2023-12-29T17:44:39;10.90;99.90
9772;DHT22;4925;52.588;13.370;2023-12-29T17:47:16;10.90;99.90
9772;DHT22;4925;52.588;13.370;2023-12-29T17:50:06;10.90;99.90
9772;DHT22;4925;52.588;13.370;2023-12-29T17:52:44;10.90;99.90
9772;DHT22;4925;52.588;13.370;2023-12-29T17:55:18;10.90;99.90
9772;DHT22;4925;52.588;13.370;2023-12-29T17:57:50;10.80;99.90
9772;DHT22;4925;52.588;13.370;2023-12-29T18:00:20;10.80;99.90
9772;DHT22;4925;52.588;13.370;2023-12-29T18:02:52;10.80;99.90
9772;DHT22;4925;52.588;13.370;2023-12-29T18:05:27;10.80;99.90
9772;DHT22;4925;52.588;13.370;2023-12-29T18:08:09;10.80;99.90